Aline, Oklahoma
Current Conditions -  °F | °C
As of 2:15 PM on Sunday 21 Dec 2014 (Local Time) from KAVK Reporting Station
Haze Haze  
Wind Chill:   Ceiling: 700
Heat Index:   Visibility: 2.5mi
Dew Point:   Wind: 14mph
Humidity: 100%   Direction: 180°S
Pressure: 29.76"   Gusts: NA
Location:  36.51°N, 98.45°W
Report Text: KAVK 212015Z AUTO 18012KT 2 1/2SM BR OVC007 07/07 A2976 RMK AO2
Loading
Personal Weather Stations






























Interactive Weather Map New forecast layout! Learn more

10-Day Weather Forecast

Advertisements
Track Severe Weather on mobile